sensor_id;sensor_type;location;lat;lon;timestamp;P1;durP1;ratioP1;P2;durP2;ratioP2
34828;SDS011;21042;47.620;12.188;2023-09-12T17:17:47;15.15;;;12.40;;
34828;SDS011;21042;47.620;12.188;2023-09-12T17:20:14;19.40;;;12.63;;
34828;SDS011;21042;47.620;12.188;2023-09-12T17:22:41;14.35;;;12.85;;
34828;SDS011;21042;47.620;12.188;2023-09-12T17:25:08;19.58;;;15.23;;
34828;SDS011;21042;47.620;12.188;2023-09-12T17:27:36;15.55;;;13.13;;
34828;SDS011;21042;47.620;12.188;2023-09-12T17:30:04;15.98;;;12.13;;
34828;SDS011;21042;47.620;12.188;2023-09-12T17:32:32;15.90;;;12.27;;
34828;SDS011;21042;47.620;12.188;2023-09-12T17:34:59;16.30;;;12.80;;
34828;SDS011;21042;47.620;12.188;2023-09-12T17:37:29;18.08;;;12.35;;
34828;SDS011;21042;47.620;12.188;2023-09-12T17:39:56;14.25;;;12.05;;
34828;SDS011;21042;47.620;12.188;2023-09-12T17:42:27;16.23;;;12.15;;
34828;SDS011;21042;47.620;12.188;2023-09-12T17:44:54;14.70;;;12.48;;
34828;SDS011;21042;47.620;12.188;2023-09-12T17:47:21;15.00;;;12.32;;
34828;SDS011;21042;47.620;12.188;2023-09-12T17:49:48;14.95;;;11.73;;
34828;SDS011;21042;47.620;12.188;2023-09-12T17:52:15;16.17;;;12.43;;
34828;SDS011;21042;47.620;12.188;2023-09-12T17:54:41;17.02;;;12.75;;
34828;SDS011;21042;47.620;12.188;2023-09-12T17:57:10;15.63;;;12.68;;
34828;SDS011;21042;47.620;12.188;2023-09-12T17:59:37;20.45;;;13.10;;
34828;SDS011;21042;47.620;12.188;2023-09-12T18:02:07;18.17;;;12.73;;
34828;SDS011;21042;47.620;12.188;2023-09-12T18:04:35;19.38;;;13.00;;
34828;SDS011;21042;47.620;12.188;2023-09-12T18:07:02;17.13;;;12.73;;
34828;SDS011;21042;47.620;12.188;2023-09-12T18:09:31;15.50;;;12.45;;
34828;SDS011;21042;47.620;12.188;2023-09-12T18:11:57;16.58;;;12.57;;
34828;SDS011;21042;47.620;12.188;2023-09-12T18:14:24;16.73;;;13.27;;
34828;SDS011;21042;47.620;12.188;2023-09-12T18:16:51;18.52;;;12.88;;
34828;SDS011;21042;47.620;12.188;2023-09-12T18:19:18;16.42;;;12.55;;
34828;SDS011;21042;47.620;12.188;2023-09-12T18:21:46;17.38;;;12.45;;
34828;SDS011;21042;47.620;12.188;2023-09-12T18:24:13;17.60;;;14.10;;
34828;SDS011;21042;47.620;12.188;2023-09-12T18:26:40;17.30;;;13.00;;
34828;SDS011;21042;47.620;12.188;2023-09-12T18:29:07;15.60;;;12.25;;
34828;SDS011;21042;47.620;12.188;2023-09-12T18:31:33;15.98;;;12.30;;
34828;SDS011;21042;47.620;12.188;2023-09-12T18:34:00;16.55;;;12.98;;
34828;SDS011;21042;47.620;12.188;2023-09-12T18:36:27;17.25;;;13.55;;
34828;SDS011;21042;47.620;12.188;2023-09-12T18:41:21;17.35;;;11.27;;
34828;SDS011;21042;47.620;12.188;2023-09-12T18:43:49;11.65;;;10.07;;
34828;SDS011;21042;47.620;12.188;2023-09-12T18:46:17;18.30;;;6.68;;
34828;SDS011;21042;47.620;12.188;2023-09-12T18:51:11;18.70;;;4.30;;
34828;SDS011;21042;47.620;12.188;2023-09-12T18:53:37;18.70;;;4.05;;
34828;SDS011;21042;47.620;12.188;2023-09-12T18:56:04;10.65;;;3.08;;
34828;SDS011;21042;47.620;12.188;2023-09-12T18:58:32;9.98;;;3.22;;
34828;SDS011;21042;47.620;12.188;2023-09-12T19:00:59;12.63;;;3.17;;
34828;SDS011;21042;47.620;12.188;2023-09-12T19:03:27;10.38;;;2.78;;
34828;SDS011;21042;47.620;12.188;2023-09-12T19:05:55;7.50;;;2.00;;
34828;SDS011;21042;47.620;12.188;2023-09-12T19:08:23;8.75;;;2.33;;
34828;SDS011;21042;47.620;12.188;2023-09-12T19:10:50;4.00;;;2.30;;
34828;SDS011;21042;47.620;12.188;2023-09-12T19:13:17;2.30;;;2.10;;
34828;SDS011;21042;47.620;12.188;2023-09-12T19:15:44;8.23;;;1.85;;
34828;SDS011;21042;47.620;12.188;2023-09-12T19:18:12;5.18;;;2.25;;
34828;SDS011;21042;47.620;12.188;2023-09-12T19:20:39;4.72;;;1.90;;
34828;SDS011;21042;47.620;12.188;2023-09-12T19:23:06;6.50;;;2.72;;
34828;SDS011;21042;47.620;12.188;2023-09-12T19:25:33;6.18;;;2.72;;
34828;SDS011;21042;47.620;12.188;2023-09-12T19:28:00;4.88;;;2.25;;
34828;SDS011;21042;47.620;12.188;2023-09-12T19:30:29;6.00;;;2.45;;
34828;SDS011;21042;47.620;12.188;2023-09-12T19:32:57;5.97;;;2.58;;
34828;SDS011;21042;47.620;12.188;2023-09-12T19:35:26;7.72;;;2.22;;
34828;SDS011;21042;47.620;12.188;2023-09-12T19:37:53;5.10;;;2.40;;
34828;SDS011;21042;47.620;12.188;2023-09-12T19:40:21;4.10;;;2.42;;
34828;SDS011;21042;47.620;12.188;2023-09-12T19:42:48;6.28;;;2.90;;
34828;SDS011;21042;47.620;12.188;2023-09-12T19:45:15;4.45;;;2.35;;
34828;SDS011;21042;47.620;12.188;2023-09-12T19:47:42;8.27;;;3.17;;
34828;SDS011;21042;47.620;12.188;2023-09-12T19:50:25;4.68;;;2.80;;
34828;SDS011;21042;47.620;12.188;2023-09-12T19:52:52;3.63;;;2.42;;
34828;SDS011;21042;47.620;12.188;2023-09-12T19:55:19;6.43;;;3.10;;
34828;SDS011;21042;47.620;12.188;2023-09-12T19:57:48;7.85;;;2.75;;
34828;SDS011;21042;47.620;12.188;2023-09-12T20:00:16;7.60;;;2.90;;
34828;SDS011;21042;47.620;12.188;2023-09-12T20:02:43;7.57;;;2.60;;
34828;SDS011;21042;47.620;12.188;2023-09-12T20:05:10;5.90;;;2.55;;
34828;SDS011;21042;47.620;12.188;2023-09-12T20:07:37;7.25;;;2.40;;
34828;SDS011;21042;47.620;12.188;2023-09-12T20:10:04;6.03;;;2.58;;
34828;SDS011;21042;47.620;12.188;2023-09-12T20:14:58;6.78;;;2.95;;
34828;SDS011;21042;47.620;12.188;2023-09-12T20:17:25;7.43;;;3.25;;
34828;SDS011;21042;47.620;12.188;2023-09-12T20:19:52;5.93;;;3.03;;
34828;SDS011;21042;47.620;12.188;2023-09-12T20:24:46;7.82;;;2.70;;
34828;SDS011;21042;47.620;12.188;2023-09-12T20:27:13;4.88;;;2.65;;
34828;SDS011;21042;47.620;12.188;2023-09-12T20:29:40;7.70;;;3.03;;
34828;SDS011;21042;47.620;12.188;2023-09-12T20:32:07;5.15;;;2.28;;
34828;SDS011;21042;47.620;12.188;2023-09-12T20:34:34;6.38;;;2.83;;
34828;SDS011;21042;47.620;12.188;2023-09-12T20:39:29;5.30;;;2.50;;
34828;SDS011;21042;47.620;12.188;2023-09-12T20:41:57;7.57;;;1.50;;
34828;SDS011;21042;47.620;12.188;2023-09-12T20:44:24;2.80;;;1.73;;
34828;SDS011;21042;47.620;12.188;2023-09-12T20:46:51;3.22;;;1.73;;
34828;SDS011;21042;47.620;12.188;2023-09-12T20:49:18;6.85;;;2.40;;
34828;SDS011;21042;47.620;12.188;2023-09-12T20:51:46;5.57;;;2.30;;
34828;SDS011;21042;47.620;12.188;2023-09-12T20:54:14;9.35;;;2.55;;
34828;SDS011;21042;47.620;12.188;2023-09-12T20:56:43;3.80;;;2.03;;
34828;SDS011;21042;47.620;12.188;2023-09-12T20:59:12;8.57;;;2.72;;
34828;SDS011;21042;47.620;12.188;2023-09-12T21:01:39;5.32;;;2.80;;
34828;SDS011;21042;47.620;12.188;2023-09-12T21:04:06;7.32;;;1.75;;
34828;SDS011;21042;47.620;12.188;2023-09-12T21:06:33;4.07;;;1.90;;
34828;SDS011;21042;47.620;12.188;2023-09-12T21:09:00;4.93;;;1.50;;
34828;SDS011;21042;47.620;12.188;2023-09-12T21:11:27;4.93;;;1.67;;
34828;SDS011;21042;47.620;12.188;2023-09-12T21:13:53;5.60;;;1.70;;
34828;SDS011;21042;47.620;12.188;2023-09-12T21:16:20;5.97;;;2.30;;
34828;SDS011;21042;47.620;12.188;2023-09-12T21:18:47;4.53;;;1.80;;
34828;SDS011;21042;47.620;12.188;2023-09-12T21:21:14;2.90;;;1.33;;
34828;SDS011;21042;47.620;12.188;2023-09-12T21:23:41;4.95;;;1.83;;
34828;SDS011;21042;47.620;12.188;2023-09-12T21:26:08;5.25;;;1.83;;
34828;SDS011;21042;47.620;12.188;2023-09-12T21:28:35;4.28;;;2.00;;
34828;SDS011;21042;47.620;12.188;2023-09-12T21:31:02;5.05;;;1.90;;
34828;SDS011;21042;47.620;12.188;2023-09-12T21:33:30;4.07;;;2.13;;
34828;SDS011;21042;47.620;12.188;2023-09-12T21:35:56;6.43;;;1.80;;
34828;SDS011;21042;47.620;12.188;2023-09-12T21:38:24;7.20;;;2.28;;
34828;SDS011;21042;47.620;12.188;2023-09-12T21:40:52;6.88;;;1.88;;
34828;SDS011;21042;47.620;12.188;2023-09-12T21:43:19;4.20;;;1.98;;
34828;SDS011;21042;47.620;12.188;2023-09-12T21:45:45;4.07;;;1.60;;
34828;SDS011;21042;47.620;12.188;2023-09-12T21:48:12;3.00;;;1.88;;
34828;SDS011;21042;47.620;12.188;2023-09-12T21:50:39;5.88;;;2.28;;
34828;SDS011;21042;47.620;12.188;2023-09-12T21:53:06;3.15;;;1.85;;
34828;SDS011;21042;47.620;12.188;2023-09-12T21:55:33;5.65;;;2.20;;
34828;SDS011;21042;47.620;12.188;2023-09-12T21:58:03;6.20;;;2.08;;
34828;SDS011;21042;47.620;12.188;2023-09-12T22:00:30;4.28;;;1.73;;
34828;SDS011;21042;47.620;12.188;2023-09-12T22:03:00;3.85;;;1.98;;
34828;SDS011;21042;47.620;12.188;2023-09-12T22:05:28;3.63;;;1.92;;
34828;SDS011;21042;47.620;12.188;2023-09-12T22:07:55;7.45;;;2.60;;
34828;SDS011;21042;47.620;12.188;2023-09-12T22:10:22;3.83;;;2.20;;
34828;SDS011;21042;47.620;12.188;2023-09-12T22:12:49;6.60;;;2.35;;
34828;SDS011;21042;47.620;12.188;2023-09-12T22:15:16;7.85;;;2.40;;
34828;SDS011;21042;47.620;12.188;2023-09-12T22:17:43;4.80;;;2.30;;
34828;SDS011;21042;47.620;12.188;2023-09-12T22:20:11;5.55;;;2.10;;
34828;SDS011;21042;47.620;12.188;2023-09-12T22:22:41;4.38;;;1.98;;
34828;SDS011;21042;47.620;12.188;2023-09-12T22:25:09;4.72;;;1.77;;
34828;SDS011;21042;47.620;12.188;2023-09-12T22:27:37;3.72;;;2.05;;
34828;SDS011;21042;47.620;12.188;2023-09-12T22:30:05;6.80;;;2.00;;
34828;SDS011;21042;47.620;12.188;2023-09-12T22:32:33;5.47;;;1.67;;
34828;SDS011;21042;47.620;12.188;2023-09-12T22:35:01;5.93;;;2.15;;
34828;SDS011;21042;47.620;12.188;2023-09-12T22:37:28;3.50;;;1.80;;
34828;SDS011;21042;47.620;12.188;2023-09-12T22:39:55;4.63;;;2.50;;
34828;SDS011;21042;47.620;12.188;2023-09-12T22:42:22;4.97;;;1.98;;
34828;SDS011;21042;47.620;12.188;2023-09-12T22:44:49;4.35;;;2.08;;
34828;SDS011;21042;47.620;12.188;2023-09-12T22:47:15;3.65;;;2.05;;
34828;SDS011;21042;47.620;12.188;2023-09-12T22:49:42;6.45;;;2.25;;
34828;SDS011;21042;47.620;12.188;2023-09-12T22:52:09;5.63;;;2.15;;
34828;SDS011;21042;47.620;12.188;2023-09-12T22:54:37;4.65;;;2.22;;
34828;SDS011;21042;47.620;12.188;2023-09-12T22:57:04;5.05;;;2.67;;
34828;SDS011;21042;47.620;12.188;2023-09-12T22:59:30;9.38;;;2.95;;
34828;SDS011;21042;47.620;12.188;2023-09-12T23:01:57;5.00;;;2.88;;
34828;SDS011;21042;47.620;12.188;2023-09-12T23:04:25;5.82;;;2.38;;
34828;SDS011;21042;47.620;12.188;2023-09-12T23:06:52;5.93;;;2.65;;
34828;SDS011;21042;47.620;12.188;2023-09-12T23:09:19;5.68;;;2.67;;
34828;SDS011;21042;47.620;12.188;2023-09-12T23:11:46;6.80;;;2.53;;
34828;SDS011;21042;47.620;12.188;2023-09-12T23:14:13;5.00;;;2.60;;
34828;SDS011;21042;47.620;12.188;2023-09-12T23:16:40;6.22;;;3.72;;
34828;SDS011;21042;47.620;12.188;2023-09-12T23:19:08;7.00;;;3.17;;
34828;SDS011;21042;47.620;12.188;2023-09-12T23:21:34;8.73;;;3.08;;
34828;SDS011;21042;47.620;12.188;2023-09-12T23:24:01;4.78;;;2.88;;
34828;SDS011;21042;47.620;12.188;2023-09-12T23:26:29;3.78;;;2.38;;
34828;SDS011;21042;47.620;12.188;2023-09-12T23:28:55;5.75;;;2.78;;
34828;SDS011;21042;47.620;12.188;2023-09-12T23:31:22;6.53;;;2.88;;
34828;SDS011;21042;47.620;12.188;2023-09-12T23:33:52;3.85;;;2.35;;
34828;SDS011;21042;47.620;12.188;2023-09-12T23:36:18;6.93;;;2.58;;
34828;SDS011;21042;47.620;12.188;2023-09-12T23:38:46;5.40;;;2.83;;
34828;SDS011;21042;47.620;12.188;2023-09-12T23:41:13;4.55;;;2.97;;
34828;SDS011;21042;47.620;12.188;2023-09-12T23:43:40;5.40;;;2.90;;
34828;SDS011;21042;47.620;12.188;2023-09-12T23:46:08;5.85;;;2.88;;
34828;SDS011;21042;47.620;12.188;2023-09-12T23:48:35;4.40;;;2.95;;
34828;SDS011;21042;47.620;12.188;2023-09-12T23:51:02;6.45;;;2.85;;
34828;SDS011;21042;47.620;12.188;2023-09-12T23:53:29;6.28;;;3.08;;
34828;SDS011;21042;47.620;12.188;2023-09-12T23:55:59;6.15;;;3.22;;
34828;SDS011;21042;47.620;12.188;2023-09-12T23:58:27;7.07;;;3.00;;
